Ginga — JJ4054 — position and weather

sailwx.info

Track history (hours):
 
Tides and Currents Weather Stations Pressure Air Temp Water Temp Dewpoint Dewpoint Depression Visibility Wind Speed Wind Dir Waves Ship Positions

Ginga

Last reported at 2017-Feb-21 00:33 UTC. Time now 2017-Feb-21 01:26 UTC.
Position N 34°39' E 135°09'.

Length 28 m; draft 1.6 m.

Type: Other ship. MMSI: 431301704.

Date/timePositionNaut miles runAvg speedWind from/ knotsBaromVisibWave heightAir tempDewpointWater temp
2017-Feb-21 00:33N 34°39' E 135°09'0 0.0
2017-Feb-20 06:33N 34°39' E 135°10'15 1.4
2017-Feb-19 20:23N 34°35' E 134°53'911.5
2017-Feb-19 19:33N 34°36' E 135°04'6 5.9
2017-Feb-19 18:33N 34°30' E 135°07'7 0.6
2017-Feb-19 07:12N 34°25' E 135°02'811.9
2017-Feb-19 06:33N 34°32' E 135°06'11 0.3
2017-Feb-17 23:30N 34°36' E 134°54'1010.3
2017-Feb-17 22:31N 34°35' E 135°06'4 4.4
2017-Feb-17 21:33N 34°31' E 135°07'2210.6
2017-Feb-17 19:31N 34°10' E 134°59'18 1.5
2017-Feb-17 07:24N 34°28' E 134°60'10 5.1
2017-Feb-17 05:32N 34°38' E 135°03'0 0.0
2017-Feb-16 23:11N 34°38' E 135°03'2 2.5
2017-Feb-16 22:30N 34°37' E 135°01'8 8.3
2017-Feb-16 21:33N 34°35' E 135°10'4 4.1
2017-Feb-16 20:33N 34°39' E 135°09'0 0.0
2017-Feb-16 05:07N 34°39' E 135°09'912.3
2017-Feb-16 04:22N 34°38' E 134°58'7 8.0
2017-Feb-16 03:31N 34°35' E 135°06'7 1.3
2017-Feb-15 22:33N 34°37' E 134°58'8 7.6
2017-Feb-15 21:33N 34°35' E 135°07'5 4.7
2017-Feb-15 20:33N 34°39' E 135°09'0 0.0
2017-Feb-15 05:08N 34°39' E 135°09'710.9
2017-Feb-15 04:31N 34°37' E 135°02'1 1.0
2017-Feb-15 03:33N 34°38' E 135°02'1 0.2
2017-Feb-14 23:31N 34°38' E 135°03'1 1.3
2017-Feb-14 22:32N 34°37' E 135°02'5 5.3
2017-Feb-14 21:33N 34°36' E 135°08'  
2017-Feb-12 05:33N 34°33' E 135°09'9 4.2
2017-Feb-12 03:32N 34°26' E 135°03'9 9.1
2017-Feb-12 02:33N 34°35' E 135°04'  
Track history (hours):
 
Tides and Currents Weather Stations Pressure Air Temp Water Temp Dewpoint Dewpoint Depression Visibility Wind Speed Wind Dir Waves Ship Positions

Ginga

Last reported at 2017-Feb-21 00:33 UTC. Time now 2017-Feb-21 01:26 UTC.
Position N 34°39' E 135°09'.

Length 28 m; draft 1.6 m.

Type: Other ship. MMSI: 431301704.

Date/timePositionNaut miles runAvg speedWind from/ knotsBaromVisibWave heightAir tempDewpointWater temp
2017-Feb-21 00:33N 34°39' E 135°09'0 0.0
2017-Feb-20 06:33N 34°39' E 135°10'15 1.4
2017-Feb-19 20:23N 34°35' E 134°53'911.5
2017-Feb-19 19:33N 34°36' E 135°04'6 5.9
2017-Feb-19 18:33N 34°30' E 135°07'7 0.6
2017-Feb-19 07:12N 34°25' E 135°02'811.9
2017-Feb-19 06:33N 34°32' E 135°06'11 0.3
2017-Feb-17 23:30N 34°36' E 134°54'1010.3
2017-Feb-17 22:31N 34°35' E 135°06'4 4.4
2017-Feb-17 21:33N 34°31' E 135°07'2210.6
2017-Feb-17 19:31N 34°10' E 134°59'18 1.5
2017-Feb-17 07:24N 34°28' E 134°60'10 5.1
2017-Feb-17 05:32N 34°38' E 135°03'0 0.0
2017-Feb-16 23:11N 34°38' E 135°03'2 2.5
2017-Feb-16 22:30N 34°37' E 135°01'8 8.3
2017-Feb-16 21:33N 34°35' E 135°10'4 4.1
2017-Feb-16 20:33N 34°39' E 135°09'0 0.0
2017-Feb-16 05:07N 34°39' E 135°09'912.3
2017-Feb-16 04:22N 34°38' E 134°58'7 8.0
2017-Feb-16 03:31N 34°35' E 135°06'7 1.3
2017-Feb-15 22:33N 34°37' E 134°58'8 7.6
2017-Feb-15 21:33N 34°35' E 135°07'5 4.7
2017-Feb-15 20:33N 34°39' E 135°09'0 0.0
2017-Feb-15 05:08N 34°39' E 135°09'710.9
2017-Feb-15 04:31N 34°37' E 135°02'1 1.0
2017-Feb-15 03:33N 34°38' E 135°02'1 0.2
2017-Feb-14 23:31N 34°38' E 135°03'1 1.3
2017-Feb-14 22:32N 34°37' E 135°02'5 5.3
2017-Feb-14 21:33N 34°36' E 135°08'  
2017-Feb-12 05:33N 34°33' E 135°09'9 4.2
2017-Feb-12 03:32N 34°26' E 135°03'9 9.1
2017-Feb-12 02:33N 34°35' E 135°04'  

Dump ship's entire track history